Time;durP1;ratioP1;P1;durP2;ratioP2;P2;SDS_P1;SDS_P2;PMS_P1;PMS_P2;Temp;Humidity;BMP_temperature;BMP_pressure;BME280_temperature;BME280_humidity;BME280_pressure;Samples;Min_cycle;Max_cycle;Signal;HPM_P1;HPM_P2
2022/08/17 00:00:54;;;;;;;28.17;22.70;;;;;;;24.68;50.55;100883.13;4963335;28;118645;-71
2022/08/17 00:03:27;;;;;;;29.63;22.50;;;;;;;24.68;50.57;100883.13;4963062;28;123984;-71
2022/08/17 00:06:12;;;;;;;28.75;21.75;;;;;;;24.65;50.46;100884.28;4964578;28;123813;-71
2022/08/17 00:08:44;;;;;;;25.75;21.73;;;;;;;24.64;50.79;100884.47;4932408;28;118363;-71
2022/08/17 00:11:15;;;;;;;25.33;21.52;;;;;;;24.61;50.76;100880.22;4960606;28;119518;-71
2022/08/17 00:13:46;;;;;;;24.73;21.67;;;;;;;24.61;50.73;100873.94;4960929;28;124816;-71
2022/08/17 00:16:21;;;;;;;24.52;21.52;;;;;;;24.60;50.69;100872.22;4959666;28;124459;-70
2022/08/17 00:19:10;;;;;;;28.10;21.92;;;;;;;24.58;50.85;100869.72;4962802;28;118405;-70
2022/08/17 00:21:40;;;;;;;26.45;22.40;;;;;;;24.57;50.88;100873.41;4962421;28;118639;-70
2022/08/17 00:24:28;;;;;;;26.67;21.48;;;;;;;24.57;50.75;100865.28;4959869;28;122972;-71
2022/08/17 00:26:55;;;;;;;27.98;22.08;;;;;;;24.56;50.78;100865.44;4963553;28;123973;-71
2022/08/17 00:29:22;;;;;;;28.40;22.65;;;;;;;24.54;50.84;100860.19;4945182;28;119731;-71
2022/08/17 00:31:49;;;;;;;24.80;21.42;;;;;;;24.51;50.97;100857.78;4959149;28;120195;-71
2022/08/17 00:34:17;;;;;;;27.30;22.63;;;;;;;24.50;50.92;100861.50;4963001;28;123915;-71
2022/08/17 00:36:44;;;;;;;27.88;22.20;;;;;;;24.48;51.19;100858.09;4962231;28;123625;-70
2022/08/17 00:39:12;;;;;;;27.85;23.20;;;;;;;24.47;51.05;100857.25;4954321;28;118963;-71
2022/08/17 00:41:39;;;;;;;26.02;21.98;;;;;;;24.45;51.20;100853.00;4965245;28;120449;-71
2022/08/17 00:44:10;;;;;;;26.45;21.83;;;;;;;24.43;51.22;100852.28;4962579;28;123928;-71
2022/08/17 00:46:40;;;;;;;29.35;21.35;;;;;;;24.40;51.27;100849.94;4961482;28;124574;-69
2022/08/17 00:49:10;;;;;;;27.83;21.92;;;;;;;24.38;51.32;100846.53;4947634;28;119530;-71
2022/08/17 00:51:42;;;;;;;26.13;21.23;;;;;;;24.36;51.32;100843.13;4961825;28;121104;-71
2022/08/17 00:54:14;;;;;;;27.48;20.65;;;;;;;24.33;51.27;100847.00;4960903;28;123595;-71
2022/08/17 00:56:46;;;;;;;25.63;20.80;;;;;;;24.31;51.38;100840.88;4960477;28;124147;-71
2022/08/17 00:59:21;;;;;;;30.70;22.73;;;;;;;24.29;51.69;100849.16;4957210;28;118428;-71
2022/08/17 01:01:50;;;;;;;25.90;21.63;;;;;;;24.26;51.50;100844.09;4959144;28;117904;-71
2022/08/17 01:04:22;;;;;;;25.13;21.48;;;;;;;24.24;51.63;100846.09;4960540;28;123283;-71
2022/08/17 01:06:50;;;;;;;29.92;21.90;;;;;;;24.22;51.61;100848.13;4958827;28;124036;-71
2022/08/17 01:09:18;;;;;;;27.92;22.23;;;;;;;24.19;51.80;100848.44;4955432;28;118449;-71
2022/08/17 01:11:50;;;;;;;24.83;21.25;;;;;;;24.19;51.84;100843.03;4963523;28;119080;-71
2022/08/17 01:14:20;;;;;;;25.27;21.05;;;;;;;24.17;51.91;100827.97;4959011;28;124019;-71
2022/08/17 01:16:50;;;;;;;27.38;21.75;;;;;;;24.15;52.00;100838.94;4963981;28;123691;-71
2022/08/17 01:19:22;;;;;;;27.05;22.52;;;;;;;24.13;52.19;100838.25;4959451;28;119866;-71
2022/08/17 01:21:59;;;;;;;25.48;21.80;;;;;;;24.14;52.15;100833.66;4962580;28;118826;-70
2022/08/17 01:24:26;;;;;;;27.52;21.30;;;;;;;24.12;52.26;100831.13;4962126;28;124501;-71
2022/08/17 01:26:53;;;;;;;28.40;21.80;;;;;;;24.12;52.08;100836.53;4963736;28;124390;-71
2022/08/17 01:29:24;;;;;;;26.95;22.25;;;;;;;24.09;51.99;100835.00;4964778;28;120216;-70
2022/08/17 01:31:56;;;;;;;30.42;22.02;;;;;;;24.08;52.29;100835.16;4963940;28;121267;-71
2022/08/17 01:34:23;;;;;;;25.98;21.65;;;;;;;24.05;52.14;100824.63;4958568;28;123783;-71
2022/08/17 01:37:06;;;;;;;24.55;20.30;;;;;;;24.02;51.97;100820.41;4955889;28;123833;-71
2022/08/17 01:39:35;;;;;;;25.88;21.52;;;;;;;23.99;52.21;100818.00;4962178;28;119102;-70
2022/08/17 01:42:28;;;;;;;27.98;22.52;;;;;;;23.95;52.06;100813.06;4963253;28;119950;-71
2022/08/17 01:45:00;;;;;;;28.05;22.45;;;;;;;23.92;52.32;100816.06;4959226;28;124781;-71
2022/08/17 01:47:27;;;;;;;27.73;23.10;;;;;;;23.85;52.37;100808.59;4961824;28;124712;-70
2022/08/17 01:49:57;;;;;;;28.55;23.67;;;;;;;23.81;52.64;100796.41;4958870;28;118422;-71
2022/08/17 01:52:24;;;;;;;29.90;23.95;;;;;;;23.75;52.78;100806.94;4959821;28;119582;-71
2022/08/17 01:54:51;;;;;;;27.30;23.58;;;;;;;23.70;52.85;100799.31;4961868;28;123971;-71
2022/08/17 01:57:19;;;;;;;27.90;23.52;;;;;;;23.65;52.98;100798.94;4959936;28;124366;-71
2022/08/17 01:59:46;;;;;;;28.65;23.27;;;;;;;23.63;52.96;100803.66;4946819;28;118256;-71
2022/08/17 02:02:13;;;;;;;30.50;24.00;;;;;;;23.59;53.00;100807.66;4959659;28;119390;-70
2022/08/17 02:04:58;;;;;;;30.92;23.35;;;;;;;23.57;53.11;100809.69;4961018;28;122982;-71
2022/08/17 02:07:25;;;;;;;27.65;22.33;;;;;;;23.55;52.98;100807.13;4958073;28;122923;-71
2022/08/17 02:09:53;;;;;;;28.58;23.23;;;;;;;23.55;53.23;100811.69;4963739;28;120395;-71
2022/08/17 02:12:21;;;;;;;26.95;22.83;;;;;;;23.54;53.36;100809.97;4959001;28;119800;-71
2022/08/17 02:15:08;;;;;;;28.40;23.20;;;;;;;23.52;53.51;100807.41;4960223;28;123135;-71
2022/08/17 02:17:35;;;;;;;27.05;22.33;;;;;;;23.51;53.60;100806.56;4956570;28;123056;-71
2022/08/17 02:20:03;;;;;;;26.73;22.40;;;;;;;23.55;53.68;100807.13;4963046;28;118344;-70
2022/08/17 02:22:30;;;;;;;27.95;21.70;;;;;;;23.55;53.56;100806.28;4964740;28;119055;-71
2022/08/17 02:24:59;;;;;;;29.13;23.20;;;;;;;23.55;53.45;100808.97;4946591;28;124014;-71
2022/08/17 02:27:28;;;;;;;27.52;22.25;;;;;;;23.51;53.50;100801.16;4957972;28;123205;-71
2022/08/17 02:29:56;;;;;;;27.15;22.65;;;;;;;23.50;53.48;100799.47;4962997;28;119124;-71
2022/08/17 02:32:25;;;;;;;28.45;23.23;;;;;;;23.50;53.61;100798.63;4958677;28;119378;-71
2022/08/17 02:34:58;;;;;;;27.20;23.33;;;;;;;23.50;53.77;100796.75;4954842;28;123079;-71
2022/08/17 02:37:27;;;;;;;29.50;24.25;;;;;;;23.49;53.55;100803.19;4960373;28;124823;-71
2022/08/17 02:39:55;;;;;;;28.77;23.42;;;;;;;23.48;53.66;100801.47;4943026;28;120743;-70
2022/08/17 02:42:30;;;;;;;27.25;22.17;;;;;;;23.47;53.58;100801.63;4962913;28;118254;-71
2022/08/17 02:44:57;;;;;;;27.98;22.58;;;;;;;23.45;53.64;100790.97;4956465;28;124028;-71
2022/08/17 02:47:25;;;;;;;27.90;21.90;;;;;;;23.45;53.75;100799.09;4965558;28;124749;-71
2022/08/17 02:49:53;;;;;;;28.92;23.67;;;;;;;23.42;53.80;100796.69;4964157;28;119029;-70
2022/08/17 02:52:24;;;;;;;28.20;21.85;;;;;;;23.39;53.60;100786.16;4961943;28;118826;-70
2022/08/17 02:55:21;;;;;;;29.42;23.35;;;;;;;23.36;53.71;100781.09;4949716;28;123462;-72
2022/08/17 02:57:48;;;;;;;30.15;24.10;;;;;;;23.33;53.69;100781.41;4961547;28;123513;-71
2022/08/17 03:00:25;;;;;;;28.90;24.27;;;;;;;23.31;53.84;100783.41;4960423;28;120374;-71
2022/08/17 03:02:52;;;;;;;28.92;23.20;;;;;;;23.29;54.01;100785.41;4963778;28;120741;-71
2022/08/17 03:05:22;;;;;;;27.67;23.70;;;;;;;23.27;53.98;100777.44;4964147;28;122973;-71
2022/08/17 03:07:50;;;;;;;29.60;23.40;;;;;;;23.26;53.94;100774.91;4965825;28;124380;-71
2022/08/17 03:10:18;;;;;;;29.40;24.63;;;;;;;23.24;54.21;100771.50;4967005;28;119074;-71
2022/08/17 03:12:45;;;;;;;28.92;23.48;;;;;;;23.23;54.15;100769.81;4967443;28;118910;-72
2022/08/17 03:15:21;;;;;;;31.10;24.67;;;;;;;23.22;54.13;100773.50;4963278;28;123222;-71
2022/08/17 03:17:50;;;;;;;31.65;24.50;;;;;;;23.21;54.21;100777.22;4949160;28;123455;-72
2022/08/17 03:20:18;;;;;;;30.98;23.95;;;;;;;23.19;54.35;100774.69;4949740;28;118858;-71
2022/08/17 03:22:49;;;;;;;29.17;24.67;;;;;;;23.20;54.61;100775.53;4965254;28;118762;-71
2022/08/17 03:25:26;;;;;;;30.73;24.20;;;;;;;23.20;54.47;100780.91;4962035;28;123943;-72
2022/08/17 03:27:55;;;;;;;;;;;;;;;23.17;53.81;100781.22;4966946;28;123631;-72
2022/08/17 03:30:24;;;;;;;29.42;23.40;;;;;;;23.19;54.33;100779.22;4964253;28;119472;-71
2022/08/17 03:32:55;;;;;;;32.35;24.20;;;;;;;23.21;54.56;100777.22;4966776;28;119452;-72
2022/08/17 03:35:24;;;;;;;30.00;23.63;;;;;;;23.22;54.77;100778.91;4962422;28;123616;-72
2022/08/17 03:37:52;;;;;;;27.85;22.75;;;;;;;23.24;54.71;100782.31;4965564;28;123768;-72
2022/08/17 03:40:27;;;;;;;28.23;23.33;;;;;;;23.26;54.87;100785.72;4962908;28;120263;-71
2022/08/17 03:43:16;;;;;;;27.73;22.50;;;;;;;23.28;54.75;100789.09;4961267;28;119251;-72
2022/08/17 03:57:04;;;;;;;27.00;23.45;;;;;;;23.37;54.77;100782.78;4956116;28;123705;-72
2022/08/17 03:59:33;;;;;;;31.65;23.98;;;;;;;23.38;54.91;100784.50;4946086;28;123619;-72
2022/08/17 04:02:08;;;;;;;28.52;23.83;;;;;;;23.39;55.10;100786.16;4961317;28;119240;-71
2022/08/17 04:04:36;;;;;;;27.63;22.43;;;;;;;23.39;55.02;100786.16;4959941;28;119384;-72
2022/08/17 04:07:03;;;;;;;31.85;24.52;;;;;;;23.40;55.27;100792.44;4966238;28;123498;-72
2022/08/17 04:09:30;;;;;;;31.00;24.08;;;;;;;23.41;55.19;100794.13;4966211;28;123637;-71
2022/08/17 04:11:58;;;;;;;30.15;24.00;;;;;;;23.41;55.21;100789.56;4963248;28;118856;-71
2022/08/17 04:14:35;;;;;;;30.20;22.95;;;;;;;23.42;55.22;100796.69;4959032;28;119791;-71
2022/08/17 04:17:25;;;;;;;31.08;24.10;;;;;;;23.41;55.10;100791.44;4945919;28;123137;-71
2022/08/17 04:19:53;;;;;;;28.63;23.77;;;;;;;23.41;55.36;100794.97;4960642;28;124164;-71
2022/08/17 04:22:22;;;;;;;28.50;24.10;;;;;;;23.41;55.21;100800.38;4961243;28;119655;-71
2022/08/17 04:25:06;;;;;;;32.85;23.52;;;;;;;23.41;55.28;100803.09;4959549;28;117625;-71
2022/08/17 04:27:33;;;;;;;27.80;23.90;;;;;;;23.40;55.03;100804.09;4960414;28;122995;-71
2022/08/17 04:30:01;;;;;;;28.23;24.15;;;;;;;23.38;54.94;100800.72;4963167;28;124790;-71
2022/08/17 04:32:28;;;;;;;30.83;25.63;;;;;;;23.38;55.40;100795.31;4963211;28;119426;-71
2022/08/17 04:35:24;;;;;;;32.88;25.60;;;;;;;23.37;55.46;100798.16;4961073;28;118129;-71
2022/08/17 04:37:52;;;;;;;33.53;24.98;;;;;;;23.36;55.40;100800.00;4966150;28;123749;-70
2022/08/17 04:43:14;;;;;;;30.48;24.80;;;;;;;23.35;55.65;100795.59;4964595;28;119317;-71
2022/08/17 04:45:50;;;;;;;33.83;26.20;;;;;;;23.34;55.72;100788.50;4961806;28;118842;-71
2022/08/17 04:48:25;;;;;;;30.58;25.48;;;;;;;23.35;55.78;100792.91;4961381;28;124511;-71
2022/08/17 04:51:03;;;;;;;31.67;24.70;;;;;;;23.36;55.76;100797.31;4962128;28;124563;-71
2022/08/17 04:53:31;;;;;;;35.67;26.35;;;;;;;23.37;55.88;100793.59;4948185;28;119870;-72
2022/08/17 04:55:58;;;;;;;31.27;25.20;;;;;;;23.40;55.80;100787.88;4961681;28;118918;-71
2022/08/17 04:58:26;;;;;;;31.58;25.48;;;;;;;23.42;55.91;100795.84;4964667;28;124793;-71
2022/08/17 05:00:53;;;;;;;31.02;25.98;;;;;;;23.44;55.86;100805.50;4966345;28;123648;-71
2022/08/17 05:03:20;;;;;;;28.42;23.90;;;;;;;23.46;55.69;100803.47;4961873;28;119420;-72
2022/08/17 05:05:48;;;;;;;30.33;26.10;;;;;;;23.48;55.94;100820.41;4963279;28;120057;-72
2022/08/17 05:08:18;;;;;;;31.42;26.52;;;;;;;23.50;56.00;100825.66;4963532;28;124193;-72
2022/08/17 05:10:46;;;;;;;32.35;25.95;;;;;;;23.50;56.00;100831.91;4965090;28;123653;-71
2022/08/17 05:13:19;;;;;;;31.77;25.15;;;;;;;23.49;56.27;100846.44;4963815;28;118685;-71
2022/08/17 05:15:48;;;;;;;32.90;25.83;;;;;;;23.50;56.24;100869.75;4963047;28;119512;-71
2022/08/17 05:18:16;;;;;;;31.50;24.42;;;;;;;23.50;56.40;100885.13;4964974;28;124047;-71
2022/08/17 05:20:44;;;;;;;34.90;26.02;;;;;;;23.48;56.66;100877.16;4960546;28;124538;-71
2022/08/17 05:23:14;;;;;;;29.55;24.38;;;;;;;23.51;56.62;100849.84;4964014;28;119617;-72
2022/08/17 05:25:44;;;;;;;29.65;24.73;;;;;;;23.56;56.55;100846.66;4965198;28;119197;-71
2022/08/17 05:28:15;;;;;;;33.88;24.77;;;;;;;23.60;56.58;100866.13;4960969;28;123706;-71
2022/08/17 05:30:44;;;;;;;31.48;24.33;;;;;;;23.62;56.58;100856.00;4964950;28;126640;-71
2022/08/17 05:33:19;;;;;;;32.78;24.27;;;;;;;23.64;56.54;100870.22;4964019;28;120005;-71
2022/08/17 05:35:49;;;;;;;33.00;25.25;;;;;;;23.67;56.59;100859.09;4958328;28;120074;-71
2022/08/17 05:38:18;;;;;;;33.78;24.92;;;;;;;23.69;56.61;100867.91;4963303;28;122667;-71
2022/08/17 05:40:46;;;;;;;32.85;24.85;;;;;;;23.71;56.50;100855.09;4961440;28;123603;-71
2022/08/17 05:43:22;;;;;;;31.27;24.70;;;;;;;23.73;56.55;100869.31;4964927;28;119283;-71
2022/08/17 05:46:04;;;;;;;28.67;24.52;;;;;;;23.73;56.49;100885.53;4961804;28;119200;-70
2022/08/17 05:48:38;;;;;;;30.42;24.55;;;;;;;23.75;56.67;100851.06;4953574;28;124280;-75
2022/08/17 05:51:26;;;;;;;34.53;24.60;;;;;;;23.77;56.47;100864.44;4945001;28;123144;-75
2022/08/17 05:54:13;;;;;;;32.35;25.40;;;;;;;23.77;56.58;100849.06;4960562;28;118812;-74
2022/08/17 05:56:46;;;;;;;33.15;26.15;;;;;;;23.78;56.59;100861.56;4957992;28;119977;-75
2022/08/17 05:59:29;;;;;;;32.85;25.95;;;;;;;23.80;56.66;100859.59;4960241;28;123853;-75
2022/08/17 06:02:21;;;;;;;32.22;25.85;;;;;;;23.81;56.55;100844.22;4961919;28;125286;-74
2022/08/17 06:05:12;;;;;;;31.10;24.38;;;;;;;23.81;56.43;100842.38;4958335;28;119051;-75
2022/08/17 06:08:12;;;;;;;31.05;24.98;;;;;;;23.81;56.50;100855.91;4961501;28;119323;-75
2022/08/17 06:11:17;;;;;;;31.77;25.00;;;;;;;23.78;56.56;100860.75;4957361;28;124616;-75
2022/08/17 06:14:12;;;;;;;34.72;27.67;;;;;;;23.78;56.74;100842.66;4938668;28;123100;-75
2022/08/17 06:16:47;;;;;;;37.17;27.83;;;;;;;23.80;56.60;100848.78;4944586;28;120645;-76
2022/08/17 06:19:26;;;;;;;36.97;27.35;;;;;;;23.82;56.94;100840.50;4958309;28;118801;-76
2022/08/17 06:21:53;;;;;;;33.95;27.58;;;;;;;23.85;56.76;100846.47;4946255;28;123206;-75
2022/08/17 06:24:33;;;;;;;32.47;27.00;;;;;;;23.87;56.81;100855.28;4976141;28;125410;-74
2022/08/17 06:27:12;;;;;;;32.15;26.13;;;;;;;23.92;57.07;100856.66;4984564;28;118244;-74
2022/08/17 06:29:55;;;;;;;37.28;28.00;;;;;;;23.95;57.10;100862.59;4976092;28;120161;-74
2022/08/17 06:32:23;;;;;;;35.30;26.58;;;;;;;24.01;57.10;100861.13;4972539;28;125289;-75
2022/08/17 06:34:52;;;;;;;32.40;25.77;;;;;;;24.06;57.39;100864.22;4980161;28;122923;-75
2022/08/17 06:37:48;;;;;;;36.88;27.38;;;;;;;24.12;57.37;100860.03;4969039;28;119151;-75
2022/08/17 06:40:36;;;;;;;33.25;26.98;;;;;;;24.19;57.49;100856.53;4966065;28;117925;-76
2022/08/17 06:43:32;;;;;;;32.45;25.77;;;;;;;24.27;57.48;100847.63;4966112;28;123741;-76
2022/08/17 06:46:22;;;;;;;32.05;26.02;;;;;;;24.37;57.33;100844.81;4944917;28;123491;-78
2022/08/17 06:49:07;;;;;;;33.55;26.60;;;;;;;24.46;57.46;100838.44;4930154;28;118346;-75
2022/08/17 06:51:39;;;;;;;32.13;26.83;;;;;;;24.54;57.25;100843.94;4965020;28;118611;-76
2022/08/17 06:54:18;;;;;;;34.53;26.70;;;;;;;24.61;57.26;100842.28;4963973;28;124781;-75
2022/08/17 06:56:58;;;;;;;35.38;26.77;;;;;;;24.67;57.29;100847.06;4967618;28;123218;-76
2022/08/17 06:59:35;;;;;;;31.05;25.52;;;;;;;24.74;57.13;100857.25;4969834;28;119165;-75
2022/08/17 07:02:54;;;;;;;34.55;26.52;;;;;;;24.81;57.20;100858.31;4958151;28;118727;-75
2022/08/17 07:05:24;;;;;;;32.28;25.52;;;;;;;24.85;57.03;100859.69;4967082;28;123973;-75
2022/08/17 07:08:10;;;;;;;29.98;24.38;;;;;;;24.87;56.78;100865.78;4967297;28;124388;-76
2022/08/17 07:10:49;;;;;;;32.50;25.67;;;;;;;24.92;56.95;100876.13;4966439;28;119806;-76
2022/08/17 07:13:45;;;;;;;31.63;24.98;;;;;;;24.97;56.70;100880.06;4966937;28;118938;-76
2022/08/17 07:16:24;;;;;;;28.65;24.92;;;;;;;25.01;56.80;100886.84;4926169;28;124353;-74
2022/08/17 07:18:54;;;;;;;31.45;24.80;;;;;;;25.06;56.52;100889.91;4949604;28;122683;-78
2022/08/17 07:21:36;;;;;;;33.45;26.02;;;;;;;25.13;56.30;100897.38;4950387;28;120310;-79
2022/08/17 07:24:36;;;;;;;30.83;24.17;;;;;;;25.19;56.09;100904.91;4966273;28;121483;-72
2022/08/17 07:27:12;;;;;;;30.10;24.20;;;;;;;25.26;56.26;100903.25;4963722;28;124145;-72
2022/08/17 07:29:43;;;;;;;29.42;24.73;;;;;;;25.31;55.96;100903.59;4946543;28;123529;-71
2022/08/17 07:32:16;;;;;;;34.05;26.83;;;;;;;25.36;55.89;100912.09;4959360;28;119283;-72
2022/08/17 07:35:09;;;;;;;32.67;26.05;;;;;;;25.39;55.77;100911.78;4962603;28;119568;-72
2022/08/17 07:37:40;;;;;;;30.70;25.23;;;;;;;25.43;55.84;100902.31;4948960;28;122927;-72
2022/08/17 07:40:17;;;;;;;32.90;25.23;;;;;;;25.45;55.87;100897.56;4967798;28;124422;-72
2022/08/17 07:43:09;;;;;;;31.38;24.48;;;;;;;25.44;55.55;100893.13;4947449;28;120819;-72
2022/08/17 07:48:48;;;;;;;30.10;24.40;;;;;;;25.48;55.42;100898.25;4956150;28;123342;-71
2022/08/17 07:51:27;;;;;;;31.63;23.45;;;;;;;25.51;55.67;100904.19;4962414;28;124355;-73
2022/08/17 07:54:00;;;;;;;33.42;22.98;;;;;;;25.55;55.31;100910.13;4967216;28;119277;-73
2022/08/17 07:56:45;;;;;;;30.02;23.17;;;;;;;25.59;55.42;100911.50;4950091;28;119252;-73
2022/08/17 07:59:19;;;;;;;29.48;23.38;;;;;;;25.64;55.75;100909.97;4938449;28;124445;-74
2022/08/17 08:01:56;;;;;;;27.00;22.60;;;;;;;25.72;55.33;100920.00;4959397;28;123614;-71
2022/08/17 08:04:33;;;;;;;28.63;22.60;;;;;;;25.77;55.40;100927.66;4949867;28;120018;-71
2022/08/17 08:07:20;;;;;;;25.30;21.67;;;;;;;25.79;55.20;100933.75;4941015;28;119162;-71
2022/08/17 08:10:06;;;;;;;26.05;21.92;;;;;;;25.80;54.92;100941.72;4964534;28;124693;-71
2022/08/17 08:12:39;;;;;;;26.23;20.45;;;;;;;25.79;54.90;100956.31;4939254;28;123453;-71
2022/08/17 08:15:11;;;;;;;25.60;20.70;;;;;;;25.80;54.71;100985.13;4966389;28;120228;-71
2022/08/17 08:17:59;;;;;;;28.02;21.10;;;;;;;25.79;54.69;101005.16;4965713;28;120693;-72
2022/08/17 08:20:36;;;;;;;30.13;23.67;;;;;;;25.75;54.99;101019.19;4942993;28;124190;-72
2022/08/17 08:23:56;;;;;;;35.60;25.27;;;;;;;25.66;55.27;100953.22;4958053;28;123755;-72
2022/08/17 08:26:43;;;;;;;33.78;24.90;;;;;;;25.55;55.37;100899.28;4964585;28;118321;-72
2022/08/17 08:29:22;;;;;;;33.13;24.95;;;;;;;25.36;55.57;100841.59;4953512;28;119000;-74
2022/08/17 08:32:19;;;;;;;31.77;25.60;;;;;;;25.19;55.98;100818.16;4964985;28;125147;-73
2022/08/17 08:35:05;;;;;;;32.58;26.23;;;;;;;24.98;56.48;100838.41;4930604;28;123411;-73
2022/08/17 08:38:06;;;;;;;34.90;26.77;;;;;;;24.82;56.76;100876.25;4948501;28;120194;-73
2022/08/17 08:41:10;;;;;;;32.72;26.60;;;;;;;24.74;57.00;100895.19;4964791;28;118508;-72
2022/08/17 08:43:47;;;;;;;34.28;26.67;;;;;;;24.71;57.79;100900.91;4965963;28;124114;-72
2022/08/17 08:46:39;;;;;;;32.25;26.20;;;;;;;24.67;57.93;100912.06;4958598;28;124920;-73
2022/08/17 08:49:33;;;;;;;33.17;25.92;;;;;;;24.67;58.41;100916.63;4942534;28;118071;-72
2022/08/17 08:53:00;;;;;;;29.95;24.73;;;;;;;24.76;58.29;100925.66;4959953;28;119344;-72
2022/08/17 08:55:52;;;;;;;31.98;25.60;;;;;;;24.89;58.35;100912.53;4946897;28;124842;-73
2022/08/17 08:58:38;;;;;;;32.72;24.75;;;;;;;25.01;57.95;100908.53;4946272;28;121986;-73
2022/08/17 09:01:19;;;;;;;31.95;25.60;;;;;;;25.16;58.29;100899.78;4960839;28;119959;-73
2022/08/17 09:04:33;;;;;;;32.60;25.50;;;;;;;25.30;58.54;100910.06;4964888;28;119094;-73
2022/08/17 09:07:32;;;;;;;31.60;26.48;;;;;;;25.49;58.50;100894.53;4886378;28;123814;-73
2022/08/17 09:10:16;;;;;;;33.95;25.25;;;;;;;25.64;58.18;100903.72;4886151;28;123965;-73
2022/08/17 09:13:02;;;;;;;30.52;25.00;;;;;;;25.80;58.08;100909.16;4950462;28;121469;-73
2022/08/17 09:15:43;;;;;;;29.60;23.88;;;;;;;25.96;57.38;100913.78;4964313;28;119911;-73
2022/08/17 09:18:32;;;;;;;27.08;21.83;;;;;;;26.10;57.15;100920.41;4954603;28;124362;-72
2022/08/17 09:21:25;;;;;;;27.05;22.83;;;;;;;26.22;56.58;100934.53;4932515;28;124825;-73
2022/08/17 09:24:08;;;;;;;26.92;21.52;;;;;;;26.30;56.41;100934.50;4944385;28;118969;-73
2022/08/17 09:26:44;;;;;;;26.73;21.10;;;;;;;26.36;56.80;100935.69;4964222;28;119013;-73
2022/08/17 09:29:15;;;;;;;25.05;19.98;;;;;;;26.40;55.93;100939.75;4944609;28;125602;-73
2022/08/17 09:32:02;;;;;;;24.50;20.17;;;;;;;26.42;55.48;100945.88;4936433;28;124058;-73
2022/08/17 09:34:42;;;;;;;24.67;20.42;;;;;;;26.46;55.56;100951.81;4944678;28;119789;-72
2022/08/17 09:37:20;;;;;;;23.73;20.58;;;;;;;26.51;55.60;100953.00;4959862;28;119253;-73
2022/08/17 09:40:25;;;;;;;26.73;21.58;;;;;;;26.57;55.87;100959.63;4950511;28;123684;-72
2022/08/17 09:43:03;;;;;;;25.83;21.02;;;;;;;26.60;55.16;100960.16;4920131;28;124031;-73
2022/08/17 09:45:43;;;;;;;26.60;21.17;;;;;;;26.64;54.91;100954.38;4960505;28;119787;-73
2022/08/17 09:48:27;;;;;;;27.63;21.90;;;;;;;26.69;55.02;100968.28;4966154;28;96954;-72
2022/08/17 09:51:23;;;;;;;23.23;19.52;;;;;;;26.73;54.94;100970.50;4963518;28;124764;-73
2022/08/17 09:53:50;;;;;;;24.58;18.85;;;;;;;26.80;54.67;100981.50;4966361;28;124220;-72
2022/08/17 09:56:32;;;;;;;21.17;18.88;;;;;;;26.84;54.17;100982.88;4952554;28;118851;-72
2022/08/17 09:59:21;;;;;;;21.98;17.65;;;;;;;26.89;54.67;101001.38;4950975;28;118783;-72
2022/08/17 10:02:19;;;;;;;23.65;19.08;;;;;;;26.93;54.30;101009.00;4963330;28;124103;-72
2022/08/17 10:05:02;;;;;;;24.38;19.27;;;;;;;26.94;54.14;101016.16;4937315;28;123844;-73
2022/08/17 10:07:42;;;;;;;25.73;20.48;;;;;;;26.96;54.27;101008.69;4956404;28;119560;-72
2022/08/17 10:10:30;;;;;;;29.08;21.40;;;;;;;26.98;54.23;101009.34;4970937;28;119525;-73
2022/08/17 10:13:10;;;;;;;23.58;19.80;;;;;;;27.03;54.06;101018.84;4969229;28;124006;-73
2022/08/17 10:16:08;;;;;;;20.33;18.13;;;;;;;27.02;53.64;101011.75;4965223;28;124272;-73
2022/08/17 10:19:01;;;;;;;20.63;17.52;;;;;;;26.98;53.02;101020.22;4965538;28;118754;-73
2022/08/17 10:27:47;;;;;;;26.95;22.92;;;;;;;26.87;53.81;101004.28;4947335;28;122951;-73
2022/08/17 10:30:18;;;;;;;27.30;22.33;;;;;;;26.86;54.00;101016.19;4954330;28;119899;-73
2022/08/17 10:32:54;;;;;;;26.73;23.35;;;;;;;26.84;54.28;101010.03;4970655;28;119184;-72
2022/08/17 10:35:27;;;;;;;27.92;23.15;;;;;;;26.82;54.46;101003.94;4967082;28;124167;-71
2022/08/17 10:37:58;;;;;;;31.33;25.23;;;;;;;26.79;54.44;101012.44;4966829;28;123594;-72
2022/08/17 10:40:29;;;;;;;30.92;25.58;;;;;;;26.77;54.34;101009.06;4967583;28;119485;-72
2022/08/17 10:43:03;;;;;;;29.88;25.08;;;;;;;26.73;54.54;101015.81;4953607;28;117596;-72
2022/08/17 10:45:50;;;;;;;30.10;26.43;;;;;;;26.68;54.57;101015.50;4952008;28;124188;-72
2022/08/17 10:48:38;;;;;;;31.73;24.80;;;;;;;26.66;54.91;101007.53;4967995;28;123789;-72
2022/08/17 10:51:12;;;;;;;30.10;24.80;;;;;;;26.67;55.00;101005.66;4968350;28;119264;-72
2022/08/17 10:53:42;;;;;;;28.40;23.80;;;;;;;26.65;54.80;101004.97;4968060;28;120040;-72
2022/08/17 10:56:12;;;;;;;28.10;23.02;;;;;;;26.61;54.88;101005.31;4970215;28;124217;-72
2022/08/17 10:58:49;;;;;;;29.17;23.17;;;;;;;26.59;54.87;100996.47;4949795;28;123143;-72
2022/08/17 11:01:16;;;;;;;27.92;24.10;;;;;;;26.56;54.71;100994.09;4966813;28;119176;-73
2022/08/17 11:03:55;;;;;;;32.20;23.98;;;;;;;26.51;54.68;100982.03;4953098;28;119439;-72
2022/08/17 11:06:37;;;;;;;29.30;24.52;;;;;;;26.45;55.14;100983.56;4965257;28;124591;-72
2022/08/17 11:09:13;;;;;;;30.55;25.10;;;;;;;26.42;55.48;100983.88;4963634;28;122328;-72
2022/08/17 11:12:06;;;;;;;36.33;28.15;;;;;;;26.41;55.60;100987.66;4963134;28;119001;-75
2022/08/17 11:14:52;;;;;;;36.92;28.02;;;;;;;26.37;55.28;100987.13;4947363;28;117928;-72
2022/08/17 11:17:39;;;;;;;34.35;27.05;;;;;;;26.33;55.40;100990.34;4966288;28;124702;-72
2022/08/17 11:20:26;;;;;;;32.00;25.48;;;;;;;26.28;55.56;100992.72;4967855;28;124557;-73
2022/08/17 11:23:06;;;;;;;31.55;25.60;;;;;;;26.25;55.85;100993.06;4940914;28;120511;-73
2022/08/17 11:25:42;;;;;;;34.50;26.50;;;;;;;26.23;56.08;100988.63;4962777;28;117965;-72
2022/08/17 11:28:14;;;;;;;32.90;26.42;;;;;;;26.20;55.94;100996.25;4964552;28;124244;-73
2022/08/17 11:30:47;;;;;;;33.47;26.50;;;;;;;26.17;56.33;100997.44;4964344;28;123829;-72
2022/08/17 11:33:33;;;;;;;33.70;26.88;;;;;;;26.14;56.69;100996.94;4963636;28;119790;-72
2022/08/17 11:36:13;;;;;;;35.28;27.45;;;;;;;26.15;56.53;100993.22;4965410;28;120437;-72
2022/08/17 11:38:56;;;;;;;34.00;27.70;;;;;;;26.13;56.56;101012.38;4958648;28;123334;-72
2022/08/17 11:41:32;;;;;;;33.40;27.80;;;;;;;26.11;56.98;101008.16;4964236;28;124680;-73
2022/08/17 11:44:36;;;;;;;32.53;26.27;;;;;;;26.10;57.33;101001.84;4940958;28;120180;-73
2022/08/17 11:53:58;;;;;;;33.72;27.45;;;;;;;26.17;57.25;101023.75;4887087;28;124236;-73
2022/08/17 11:56:48;;;;;;;35.92;27.90;;;;;;;26.19;56.98;101027.16;4951130;28;120721;-72
2022/08/17 11:59:31;;;;;;;37.03;28.20;;;;;;;26.16;56.80;101028.34;4965638;28;119984;-74
2022/08/17 12:02:00;;;;;;;35.00;27.20;;;;;;;26.15;57.00;101033.94;4947735;28;123496;-73
2022/08/17 12:04:30;;;;;;;39.33;28.17;;;;;;;26.16;56.99;101033.78;4962444;28;123199;-73
2022/08/17 12:07:17;;;;;;;35.10;28.25;;;;;;;26.14;56.74;101041.22;4948338;28;120177;-73
2022/08/17 12:09:49;;;;;;;36.72;28.65;;;;;;;26.14;57.19;101041.22;4941883;28;118885;-73
2022/08/17 12:12:20;;;;;;;35.50;28.30;;;;;;;26.13;57.10;101061.25;4962850;28;123835;-73
2022/08/17 12:14:52;;;;;;;33.83;28.83;;;;;;;26.11;57.07;101063.28;4965656;28;123612;-72
2022/08/17 12:17:38;;;;;;;35.97;29.55;;;;;;;26.12;57.08;101062.25;4938306;28;119164;-72